createdAt,value
2023-06-14T00:00:30.772Z,27.45
2023-06-14T00:01:30.828Z,27.46
2023-06-14T00:02:30.998Z,27.46
2023-06-14T00:03:30.965Z,27.46
2023-06-14T00:04:30.919Z,27.46
2023-06-14T00:05:30.895Z,27.45
2023-06-14T00:06:31.458Z,27.46
2023-06-14T00:07:31.011Z,27.45
2023-06-14T00:08:31.060Z,27.45
2023-06-14T00:09:31.137Z,27.45
2023-06-14T00:10:31.156Z,27.45
2023-06-14T00:11:31.456Z,27.46
2023-06-14T00:12:31.256Z,27.46
2023-06-14T00:13:31.336Z,27.46
2023-06-14T00:14:31.440Z,27.45
2023-06-14T00:15:31.410Z,27.46
2023-06-14T00:16:31.566Z,27.45
2023-06-14T00:17:31.573Z,27.45
2023-06-14T00:18:31.535Z,27.45
2023-06-14T00:19:31.588Z,27.45
2023-06-14T00:20:31.738Z,27.45
2023-06-14T00:21:31.997Z,27.46
2023-06-14T00:22:31.741Z,27.46
2023-06-14T00:23:31.793Z,27.46
2023-06-14T00:24:31.850Z,27.46
2023-06-14T00:25:31.861Z,27.46
2023-06-14T00:26:32.045Z,27.46
2023-06-14T00:27:31.865Z,27.46
2023-06-14T00:28:31.891Z,27.47
2023-06-14T00:29:31.944Z,27.45
2023-06-14T00:30:32.311Z,27.45
2023-06-14T00:31:32.458Z,27.46
2023-06-14T00:32:32.093Z,27.45
2023-06-14T00:33:32.085Z,27.45
2023-06-14T00:34:32.109Z,27.46
2023-06-14T00:35:32.098Z,27.44
2023-06-14T00:36:32.182Z,27.45
2023-06-14T00:37:32.217Z,27.45
2023-06-14T00:38:32.220Z,27.45
2023-06-14T00:39:32.295Z,27.45
2023-06-14T00:40:32.265Z,27.45
2023-06-14T00:41:32.305Z,27.45
2023-06-14T00:42:32.327Z,27.46
2023-06-14T00:43:32.401Z,27.45
2023-06-14T00:44:32.389Z,27.44
2023-06-14T00:45:32.423Z,27.44
2023-06-14T00:46:32.445Z,27.45
2023-06-14T00:47:32.509Z,27.45
2023-06-14T00:48:32.515Z,27.45
2023-06-14T00:49:32.506Z,27.45
2023-06-14T00:50:32.567Z,27.45
2023-06-14T00:51:32.975Z,27.45
2023-06-14T00:52:32.552Z,27.44
2023-06-14T00:53:32.576Z,27.45
2023-06-14T00:54:32.609Z,27.45
2023-06-14T00:55:32.598Z,27.44
2023-06-14T00:56:33.009Z,27.45
2023-06-14T00:57:32.694Z,27.44
2023-06-14T00:58:32.705Z,27.44
2023-06-14T00:59:32.710Z,27.44
2023-06-14T01:00:32.739Z,27.43
2023-06-14T01:01:32.997Z,27.44
2023-06-14T01:02:32.860Z,27.44
2023-06-14T01:03:32.999Z,27.44
2023-06-14T01:04:32.864Z,27.44
2023-06-14T01:05:32.866Z,27.44
2023-06-14T01:06:33.484Z,27.44
2023-06-14T01:07:32.913Z,27.45
2023-06-14T01:08:32.929Z,27.44
2023-06-14T01:09:32.952Z,27.44
2023-06-14T01:10:32.950Z,27.44
2023-06-14T01:11:33.466Z,27.44
2023-06-14T01:12:32.984Z,27.44
2023-06-14T01:13:33.023Z,27.44
2023-06-14T01:14:33.050Z,27.45
2023-06-14T01:15:33.095Z,27.44
2023-06-14T01:16:33.116Z,27.44
2023-06-14T01:17:33.189Z,27.44
2023-06-14T01:18:33.139Z,27.44
2023-06-14T01:19:33.110Z,27.44
2023-06-14T01:20:33.201Z,27.43
2023-06-14T01:21:33.210Z,27.44
2023-06-14T01:22:33.233Z,27.44
2023-06-14T01:23:33.270Z,27.43
2023-06-14T01:24:33.551Z,27.43
2023-06-14T01:25:33.348Z,27.43
2023-06-14T01:26:33.358Z,27.43
2023-06-14T01:27:33.397Z,27.43
2023-06-14T01:28:33.485Z,27.43
2023-06-14T01:29:33.581Z,27.43
2023-06-14T01:30:33.552Z,27.43
2023-06-14T01:31:33.608Z,27.43
2023-06-14T01:32:33.661Z,27.43
2023-06-14T01:33:33.684Z,27.43
2023-06-14T01:34:33.750Z,27.43
2023-06-14T01:35:33.741Z,27.42
2023-06-14T01:36:33.802Z,27.43
2023-06-14T01:37:33.844Z,27.43
2023-06-14T01:38:33.885Z,27.42
2023-06-14T01:39:33.935Z,27.43
2023-06-14T01:40:33.951Z,27.43
2023-06-14T01:41:33.976Z,27.43
2023-06-14T01:42:33.995Z,27.43
2023-06-14T01:43:34.035Z,27.43
2023-06-14T01:44:34.146Z,27.43
2023-06-14T01:45:34.123Z,27.44
2023-06-14T01:46:34.272Z,27.42
2023-06-14T01:47:34.256Z,27.42
2023-06-14T01:48:34.266Z,27.42
2023-06-14T01:49:34.263Z,27.42
2023-06-14T01:50:34.357Z,27.43
2023-06-14T01:51:34.376Z,27.42
2023-06-14T01:52:34.441Z,27.42
2023-06-14T01:53:34.490Z,27.42
2023-06-14T01:54:34.496Z,27.42
2023-06-14T01:55:34.513Z,27.42
2023-06-14T01:56:34.586Z,27.41
2023-06-14T01:57:34.639Z,27.42
2023-06-14T01:58:34.706Z,27.41
2023-06-14T01:59:34.720Z,27.41
2023-06-14T02:00:34.674Z,27.41
2023-06-14T02:01:34.749Z,27.42
2023-06-14T02:02:34.774Z,27.41
2023-06-14T02:03:34.745Z,27.42
2023-06-14T02:04:34.752Z,27.41
2023-06-14T02:05:34.840Z,27.42
2023-06-14T02:06:34.766Z,27.41
2023-06-14T02:07:34.866Z,27.41
2023-06-14T02:08:34.921Z,27.41
2023-06-14T02:09:34.980Z,27.42
2023-06-14T02:10:36.361Z,27.41
2023-06-14T02:11:35.017Z,27.41
2023-06-14T02:12:35.034Z,27.41
2023-06-14T02:13:35.099Z,27.41
2023-06-14T02:14:35.194Z,27.42
2023-06-14T02:15:35.482Z,27.42
2023-06-14T02:16:35.332Z,27.42
2023-06-14T02:17:35.263Z,27.41
2023-06-14T02:18:35.234Z,27.41
2023-06-14T02:19:35.243Z,27.40
2023-06-14T02:20:35.308Z,27.41
2023-06-14T02:21:35.333Z,27.41
2023-06-14T02:22:35.375Z,27.40
2023-06-14T02:23:35.832Z,27.40
2023-06-14T02:24:35.423Z,27.40
2023-06-14T02:25:35.537Z,27.39
2023-06-14T02:26:35.542Z,27.39
2023-06-14T02:27:35.521Z,27.39
2023-06-14T02:28:35.528Z,27.39
2023-06-14T02:29:35.588Z,27.39
2023-06-14T02:30:35.607Z,27.40
2023-06-14T02:31:35.624Z,27.40
2023-06-14T02:32:35.696Z,27.40
2023-06-14T02:33:35.656Z,27.39
2023-06-14T02:34:35.614Z,27.39
2023-06-14T02:35:35.644Z,27.40
2023-06-14T02:36:35.662Z,27.40
2023-06-14T02:37:35.634Z,27.39
2023-06-14T02:38:35.673Z,27.39
2023-06-14T02:39:35.705Z,27.39
2023-06-14T02:40:35.692Z,27.38
2023-06-14T02:41:35.739Z,27.39
2023-06-14T02:42:35.768Z,27.38
2023-06-14T02:43:35.806Z,27.38
2023-06-14T02:44:35.869Z,27.38
2023-06-14T02:45:35.935Z,27.38
2023-06-14T02:46:35.937Z,27.38
2023-06-14T02:47:36.032Z,27.38
2023-06-14T02:48:36.042Z,27.38
2023-06-14T02:49:36.066Z,27.37
2023-06-14T02:50:36.151Z,27.37
2023-06-14T02:51:36.177Z,27.38
2023-06-14T02:52:36.140Z,27.38
2023-06-14T02:53:36.167Z,27.37
2023-06-14T02:54:36.166Z,27.37
2023-06-14T02:55:36.161Z,27.37
2023-06-14T02:56:36.167Z,27.37
2023-06-14T02:57:36.158Z,27.38
2023-06-14T02:58:36.194Z,27.37
2023-06-14T02:59:36.273Z,27.38
2023-06-14T03:00:36.343Z,27.37
2023-06-14T03:01:36.380Z,27.37
2023-06-14T03:02:36.355Z,27.37
2023-06-14T03:03:36.375Z,27.37
2023-06-14T03:04:36.349Z,27.37
2023-06-14T03:05:36.341Z,27.37
2023-06-14T03:06:36.385Z,27.36
2023-06-14T03:07:36.392Z,27.36
2023-06-14T03:08:36.389Z,27.36
2023-06-14T03:09:36.433Z,27.36
2023-06-14T03:10:36.405Z,27.35
2023-06-14T03:11:36.477Z,27.35
2023-06-14T03:12:36.420Z,27.36
2023-06-14T03:13:36.487Z,27.36
2023-06-14T03:14:36.511Z,27.34
2023-06-14T03:15:36.494Z,27.35
2023-06-14T03:16:36.562Z,27.36
2023-06-14T03:17:36.592Z,27.34
2023-06-14T03:18:36.689Z,27.36
2023-06-14T03:19:36.507Z,27.35
2023-06-14T03:20:36.588Z,27.35
2023-06-14T03:21:36.618Z,27.35
2023-06-14T03:22:36.687Z,27.35
2023-06-14T03:23:36.723Z,27.35
2023-06-14T03:24:36.754Z,27.34
2023-06-14T03:25:36.752Z,27.35
2023-06-14T03:26:36.771Z,27.35
2023-06-14T03:27:36.745Z,27.34
2023-06-14T03:28:36.808Z,27.35
2023-06-14T03:29:36.792Z,27.34
2023-06-14T03:30:36.813Z,27.34
2023-06-14T03:31:36.876Z,27.34
2023-06-14T03:32:36.850Z,27.34
2023-06-14T03:33:36.828Z,27.35
2023-06-14T03:34:36.798Z,27.34
2023-06-14T03:35:36.835Z,27.34
2023-06-14T03:36:36.842Z,27.35
2023-06-14T03:37:36.821Z,27.35
2023-06-14T03:38:36.885Z,27.35
2023-06-14T03:39:36.828Z,27.34
2023-06-14T03:40:36.812Z,27.34
2023-06-14T03:41:36.821Z,27.35
2023-06-14T03:42:36.852Z,27.35
2023-06-14T03:43:36.948Z,27.34
2023-06-14T03:44:36.919Z,27.34
2023-06-14T03:45:36.981Z,27.34
2023-06-14T03:46:36.984Z,27.34
2023-06-14T03:47:37.039Z,27.34
2023-06-14T03:48:37.071Z,27.34
2023-06-14T03:49:37.047Z,27.34
2023-06-14T03:50:37.036Z,27.34
2023-06-14T03:51:37.017Z,27.34
2023-06-14T03:52:37.030Z,27.34
2023-06-14T03:53:40.006Z,27.34
2023-06-14T03:55:55.597Z,27.33
2023-06-14T03:56:38.255Z,27.33
2023-06-14T03:57:37.000Z,27.33
2023-06-14T03:58:36.991Z,27.33
2023-06-14T03:59:37.011Z,27.33
2023-06-14T04:00:37.004Z,27.33
2023-06-14T04:01:37.015Z,27.34
2023-06-14T04:02:37.044Z,27.33
2023-06-14T04:03:37.099Z,27.33
2023-06-14T04:04:36.981Z,27.33
2023-06-14T04:05:37.005Z,27.33
2023-06-14T04:06:36.939Z,27.33
2023-06-14T04:07:36.966Z,27.33
2023-06-14T04:08:36.900Z,27.34
2023-06-14T04:09:36.902Z,27.34
2023-06-14T04:10:36.916Z,27.34
2023-06-14T04:11:36.923Z,27.34
2023-06-14T04:12:36.896Z,27.33
2023-06-14T04:13:36.900Z,27.34
2023-06-14T04:14:36.893Z,27.33
2023-06-14T04:15:36.921Z,27.34
2023-06-14T04:16:36.981Z,27.34
2023-06-14T04:17:36.905Z,27.35
2023-06-14T04:18:36.903Z,27.34
2023-06-14T04:19:36.848Z,27.35
2023-06-14T04:20:36.844Z,27.34
2023-06-14T04:21:36.857Z,27.34
2023-06-14T04:22:36.864Z,27.34
2023-06-14T04:23:36.859Z,27.34
2023-06-14T04:24:36.804Z,27.34
2023-06-14T04:25:36.833Z,27.34
2023-06-14T04:26:36.827Z,27.34
2023-06-14T04:27:36.799Z,27.34
2023-06-14T04:28:36.792Z,27.33
2023-06-14T04:29:36.816Z,27.34
2023-06-14T04:30:36.787Z,27.33
2023-06-14T04:31:36.777Z,27.34
2023-06-14T04:32:36.859Z,27.34
2023-06-14T04:33:36.980Z,27.34
2023-06-14T04:34:36.766Z,27.34
2023-06-14T04:35:36.757Z,27.34
2023-06-14T04:36:36.764Z,27.35
2023-06-14T04:37:36.764Z,27.35
2023-06-14T04:38:36.754Z,27.35
2023-06-14T04:39:36.710Z,27.34
2023-06-14T04:40:36.716Z,27.34
2023-06-14T04:41:36.734Z,27.34
2023-06-14T04:42:36.704Z,27.34
2023-06-14T04:43:36.749Z,27.34
2023-06-14T04:44:36.779Z,27.35
2023-06-14T04:45:36.771Z,27.34
2023-06-14T04:46:36.891Z,27.35
2023-06-14T04:47:36.887Z,27.34
2023-06-14T04:48:36.818Z,27.34
2023-06-14T04:49:36.826Z,27.34
2023-06-14T04:50:36.843Z,27.34
2023-06-14T04:51:36.878Z,27.33
2023-06-14T04:52:36.859Z,27.33
2023-06-14T04:53:36.874Z,27.33
2023-06-14T04:54:37.897Z,27.33
2023-06-14T04:55:36.919Z,27.33
2023-06-14T04:56:36.895Z,27.32
2023-06-14T04:57:36.888Z,27.32
2023-06-14T04:58:36.890Z,27.31
2023-06-14T04:59:36.918Z,27.30
2023-06-14T05:00:36.923Z,27.29
2023-06-14T05:01:36.913Z,27.28
2023-06-14T05:02:37.003Z,27.28
2023-06-14T05:03:36.892Z,27.29
2023-06-14T05:04:36.873Z,27.29
2023-06-14T05:05:36.858Z,27.30
2023-06-14T05:06:36.886Z,27.29
2023-06-14T05:07:37.644Z,27.29
2023-06-14T05:08:36.901Z,27.29
2023-06-14T05:09:36.897Z,27.29
2023-06-14T05:10:36.904Z,27.29
2023-06-14T05:11:36.942Z,27.29
2023-06-14T05:12:36.914Z,27.29
2023-06-14T05:13:36.933Z,27.29
2023-06-14T05:14:36.946Z,27.29
2023-06-14T05:15:36.977Z,27.29
2023-06-14T05:16:36.941Z,27.30
2023-06-14T05:17:36.997Z,27.29
2023-06-14T05:18:36.915Z,27.30
2023-06-14T05:19:36.937Z,27.30
2023-06-14T05:20:36.948Z,27.29
2023-06-14T05:21:42.317Z,27.28
2023-06-14T05:22:37.937Z,27.28
2023-06-14T05:23:36.890Z,27.28
2023-06-14T05:24:36.896Z,27.28
2023-06-14T05:25:36.934Z,27.27
2023-06-14T05:26:36.883Z,27.27
2023-06-14T05:27:36.998Z,27.26
2023-06-14T05:28:36.859Z,27.26
2023-06-14T05:29:36.881Z,27.25
2023-06-14T05:30:36.847Z,27.24
2023-06-14T05:31:36.922Z,27.24
2023-06-14T05:32:36.878Z,27.23
2023-06-14T05:33:36.962Z,27.23
2023-06-14T05:34:36.840Z,27.23
2023-06-14T05:35:36.853Z,27.24
2023-06-14T05:36:36.825Z,27.24
2023-06-14T05:37:36.824Z,27.25
2023-06-14T05:38:36.814Z,27.27
2023-06-14T05:39:36.817Z,27.28
2023-06-14T05:40:36.792Z,27.27
2023-06-14T05:41:36.771Z,27.28
2023-06-14T05:42:36.771Z,27.27
2023-06-14T05:43:36.763Z,27.26
2023-06-14T05:44:36.765Z,27.28
2023-06-14T05:45:36.738Z,27.28
2023-06-14T05:46:37.111Z,27.28
2023-06-14T05:47:36.777Z,27.28
2023-06-14T05:48:36.749Z,27.28
2023-06-14T05:49:36.733Z,27.28
2023-06-14T05:50:36.725Z,27.30
2023-06-14T05:51:36.722Z,27.32
2023-06-14T05:52:36.681Z,27.34
2023-06-14T05:53:36.686Z,27.33
2023-06-14T05:54:36.703Z,27.32
2023-06-14T05:55:36.782Z,27.31
2023-06-14T05:56:36.735Z,27.30
2023-06-14T05:57:36.714Z,27.30
2023-06-14T05:58:36.657Z,27.30
2023-06-14T05:59:36.655Z,27.29
2023-06-14T06:00:36.656Z,27.28
2023-06-14T06:01:36.693Z,27.28
2023-06-14T06:02:36.743Z,27.30
2023-06-14T06:03:36.791Z,27.33
2023-06-14T06:04:36.689Z,27.36
2023-06-14T06:05:36.612Z,27.39
2023-06-14T06:06:37.096Z,27.40
2023-06-14T06:07:38.101Z,27.39
2023-06-14T06:08:36.591Z,27.38
2023-06-14T06:09:36.595Z,27.36
2023-06-14T06:10:36.585Z,27.35
2023-06-14T06:11:48.583Z,27.35
2023-06-14T06:12:37.568Z,27.33
2023-06-14T06:13:36.604Z,27.33
2023-06-14T06:14:36.533Z,27.34
2023-06-14T06:15:36.562Z,27.37
2023-06-14T06:16:36.548Z,27.38
2023-06-14T06:17:53.949Z,27.37
2023-06-14T06:18:37.617Z,27.38
2023-06-14T06:19:36.519Z,27.40
2023-06-14T06:20:36.529Z,27.38
2023-06-14T06:21:36.604Z,27.31
2023-06-14T06:22:36.476Z,27.21
2023-06-14T06:23:36.492Z,27.14
2023-06-14T06:24:36.560Z,27.03
2023-06-14T06:25:36.474Z,26.89
2023-06-14T06:26:36.478Z,26.76
2023-06-14T06:27:36.487Z,26.60
2023-06-14T06:28:36.454Z,26.45
2023-06-14T06:29:36.460Z,26.34
2023-06-14T06:30:36.434Z,26.24
2023-06-14T06:31:36.462Z,26.16
2023-06-14T06:32:36.477Z,26.07
2023-06-14T06:33:36.395Z,25.97
2023-06-14T06:34:36.422Z,25.91
2023-06-14T06:35:36.475Z,25.84
2023-06-14T06:36:36.490Z,25.77
2023-06-14T06:37:36.536Z,25.66
2023-06-14T06:38:36.583Z,25.60
2023-06-14T06:39:36.701Z,25.50
2023-06-14T06:40:36.704Z,25.38
2023-06-14T06:41:36.764Z,25.32
2023-06-14T06:42:36.767Z,25.29
2023-06-14T06:43:36.756Z,25.22
2023-06-14T06:44:36.794Z,25.20
2023-06-14T06:45:36.754Z,25.20
2023-06-14T06:46:36.859Z,25.15
2023-06-14T06:47:36.805Z,25.10
2023-06-14T06:48:36.789Z,25.07
2023-06-14T06:49:36.843Z,25.11
2023-06-14T06:50:36.821Z,25.17
2023-06-14T06:51:36.800Z,25.21
2023-06-14T06:52:36.779Z,25.17
2023-06-14T06:53:42.847Z,25.19
2023-06-14T06:54:37.788Z,25.25
2023-06-14T06:55:36.756Z,25.31
2023-06-14T06:56:36.813Z,25.35
2023-06-14T06:57:36.779Z,25.38
2023-06-14T06:58:36.758Z,25.44
2023-06-14T06:59:36.746Z,25.48
2023-06-14T07:00:36.731Z,25.55
2023-06-14T07:01:36.780Z,25.57
2023-06-14T07:02:36.718Z,25.52
2023-06-14T07:03:36.697Z,25.46
2023-06-14T07:04:36.728Z,25.40
2023-06-14T07:05:36.755Z,25.33
2023-06-14T07:06:36.707Z,25.26
2023-06-14T07:07:36.681Z,25.13
2023-06-14T07:08:36.720Z,25.06
2023-06-14T07:09:36.707Z,25.03
2023-06-14T07:10:36.658Z,25.01
2023-06-14T07:11:36.661Z,25.02
2023-06-14T07:12:36.680Z,25.05
2023-06-14T07:13:36.654Z,25.07
2023-06-14T07:14:36.655Z,25.06
2023-06-14T07:15:36.668Z,25.03
2023-06-14T07:16:37.153Z,25.02
2023-06-14T07:17:36.671Z,25.03
2023-06-14T07:18:36.663Z,24.98
2023-06-14T07:19:36.690Z,24.96
2023-06-14T07:20:36.693Z,24.96
2023-06-14T07:21:36.713Z,24.95
2023-06-14T07:22:36.753Z,24.95
2023-06-14T07:23:36.756Z,24.98
2023-06-14T07:24:36.829Z,25.00
2023-06-14T07:25:36.797Z,25.03
2023-06-14T07:26:36.784Z,25.07
2023-06-14T07:27:36.777Z,25.06
2023-06-14T07:28:36.804Z,25.04
2023-06-14T07:29:36.784Z,25.05
2023-06-14T07:30:36.798Z,25.05
2023-06-14T07:31:36.801Z,25.08
2023-06-14T07:32:36.817Z,25.08
2023-06-14T07:33:36.934Z,25.07
2023-06-14T07:34:36.869Z,25.06
2023-06-14T07:35:36.836Z,25.02
2023-06-14T07:36:36.852Z,25.03
2023-06-14T07:37:36.829Z,25.12
2023-06-14T07:38:36.846Z,25.15
2023-06-14T07:39:36.867Z,25.21
2023-06-14T07:40:36.841Z,25.26
2023-06-14T07:41:36.805Z,25.28
2023-06-14T07:42:36.831Z,25.34
2023-06-14T07:43:36.852Z,25.38
2023-06-14T07:44:36.834Z,25.40
2023-06-14T07:45:36.818Z,25.42
2023-06-14T07:46:36.825Z,25.38
2023-06-14T07:47:36.968Z,25.32
2023-06-14T07:48:36.939Z,25.27
2023-06-14T07:49:36.813Z,25.22
2023-06-14T07:50:36.826Z,25.18
2023-06-14T07:51:36.836Z,25.15
2023-06-14T07:52:36.867Z,25.17
2023-06-14T07:53:36.824Z,25.21
2023-06-14T07:54:36.842Z,25.22
2023-06-14T07:55:52.715Z,25.20
2023-06-14T07:56:37.818Z,25.19
2023-06-14T07:57:36.809Z,25.21
2023-06-14T07:58:36.829Z,25.24
2023-06-14T07:59:36.843Z,25.27
2023-06-14T08:00:36.840Z,25.31
2023-06-14T08:01:36.814Z,25.37
2023-06-14T08:02:36.903Z,25.39
2023-06-14T08:03:36.894Z,25.41
2023-06-14T08:04:36.788Z,25.41
2023-06-14T08:05:36.784Z,25.43
2023-06-14T08:06:36.784Z,25.44
2023-06-14T08:07:36.762Z,25.45
2023-06-14T08:08:36.772Z,25.46
2023-06-14T08:09:36.752Z,25.42
2023-06-14T08:10:36.766Z,25.33
2023-06-14T08:11:37.955Z,25.28
2023-06-14T08:12:36.748Z,25.29
2023-06-14T08:13:36.717Z,25.28
2023-06-14T08:14:36.739Z,25.29
2023-06-14T08:15:36.725Z,25.30
2023-06-14T08:16:36.924Z,25.32
2023-06-14T08:17:36.681Z,25.32
2023-06-14T08:18:36.733Z,25.29
2023-06-14T08:19:36.707Z,25.31
2023-06-14T08:20:36.688Z,25.29
2023-06-14T08:21:36.664Z,25.30
2023-06-14T08:22:36.660Z,25.29
2023-06-14T08:23:36.660Z,25.28
2023-06-14T08:24:36.627Z,25.28
2023-06-14T08:25:36.644Z,25.26
2023-06-14T08:26:36.643Z,25.23
2023-06-14T08:27:36.612Z,25.20
2023-06-14T08:28:36.613Z,25.18
2023-06-14T08:29:36.606Z,25.18
2023-06-14T08:30:36.596Z,25.20
2023-06-14T08:31:36.582Z,25.19
2023-06-14T08:32:36.711Z,25.19
2023-06-14T08:33:36.681Z,25.18
2023-06-14T08:34:37.098Z,25.19
2023-06-14T08:35:37.635Z,25.17
2023-06-14T08:36:36.614Z,25.16
2023-06-14T08:37:36.593Z,25.18
2023-06-14T08:38:36.588Z,25.18
2023-06-14T08:39:36.624Z,25.19
2023-06-14T08:40:36.603Z,25.23
2023-06-14T08:41:36.626Z,25.25
2023-06-14T08:42:36.658Z,25.27
2023-06-14T08:43:36.591Z,25.33
2023-06-14T08:44:36.577Z,25.37
2023-06-14T08:45:36.607Z,25.38
2023-06-14T08:46:36.634Z,25.38
2023-06-14T08:47:41.485Z,25.38
2023-06-14T08:48:37.603Z,25.37
2023-06-14T08:49:37.798Z,25.35
2023-06-14T08:50:36.898Z,25.35
2023-06-14T08:51:36.598Z,25.34
2023-06-14T08:52:36.575Z,25.34
2023-06-14T08:53:38.549Z,25.33
2023-06-14T08:54:36.625Z,25.34
2023-06-14T08:55:38.156Z,25.35
2023-06-14T08:56:36.628Z,25.37
2023-06-14T08:57:36.686Z,25.39
2023-06-14T08:58:36.725Z,25.40
2023-06-14T08:59:36.799Z,25.40
2023-06-14T09:00:36.836Z,25.42
2023-06-14T09:01:36.952Z,25.44
2023-06-14T09:02:36.980Z,25.44
2023-06-14T09:03:37.023Z,25.45
2023-06-14T09:04:37.027Z,25.44
2023-06-14T09:05:37.030Z,25.45
2023-06-14T09:06:37.006Z,25.44
2023-06-14T09:07:37.089Z,25.47
2023-06-14T09:08:37.094Z,25.51
2023-06-14T09:09:37.137Z,25.55
2023-06-14T09:10:37.245Z,25.59
2023-06-14T09:11:37.285Z,25.64
2023-06-14T09:12:37.304Z,25.69
2023-06-14T09:13:37.357Z,25.70
2023-06-14T09:14:37.354Z,25.69
2023-06-14T09:15:37.403Z,25.60
2023-06-14T09:16:37.532Z,25.56
2023-06-14T09:17:37.570Z,25.56
2023-06-14T09:18:37.603Z,25.59
2023-06-14T09:19:37.648Z,25.62
2023-06-14T09:20:37.711Z,25.64
2023-06-14T09:21:37.742Z,25.63
2023-06-14T09:22:37.837Z,25.64
2023-06-14T09:23:37.930Z,25.66
2023-06-14T09:24:37.948Z,25.69
2023-06-14T09:25:40.275Z,25.73
2023-06-14T09:26:38.174Z,25.77
2023-06-14T09:27:38.195Z,25.80
2023-06-14T09:28:38.223Z,25.83
2023-06-14T09:29:38.342Z,25.82
2023-06-14T09:30:38.304Z,25.81
2023-06-14T09:31:38.376Z,25.83
2023-06-14T09:32:38.397Z,25.85
2023-06-14T09:33:38.365Z,25.78
2023-06-14T09:34:38.416Z,25.72
2023-06-14T09:35:38.498Z,25.70
2023-06-14T09:36:38.525Z,25.73
2023-06-14T09:37:38.576Z,25.76
2023-06-14T09:38:38.625Z,25.79
2023-06-14T09:39:38.609Z,25.84
2023-06-14T09:40:38.667Z,25.87
2023-06-14T09:41:38.676Z,25.91
2023-06-14T09:42:38.706Z,25.95
2023-06-14T09:43:38.726Z,25.99
2023-06-14T09:44:38.719Z,25.97
2023-06-14T09:45:38.748Z,25.99
2023-06-14T09:46:38.894Z,26.01
2023-06-14T09:47:39.357Z,26.05
2023-06-14T09:48:38.908Z,26.10
2023-06-14T09:49:38.848Z,26.14
2023-06-14T09:50:38.822Z,26.20
2023-06-14T09:51:38.910Z,26.28
2023-06-14T09:52:39.166Z,26.32
2023-06-14T09:53:38.996Z,26.36
2023-06-14T09:54:39.066Z,26.39
2023-06-14T09:55:39.235Z,26.40
2023-06-14T09:56:39.126Z,26.42
2023-06-14T09:57:39.221Z,26.41
2023-06-14T09:58:39.262Z,26.41
2023-06-14T09:59:39.285Z,26.44
2023-06-14T10:00:39.323Z,26.46
2023-06-14T10:01:39.458Z,26.48
2023-06-14T10:02:39.467Z,26.53
2023-06-14T10:03:57.498Z,26.56
2023-06-14T10:04:40.453Z,26.55
2023-06-14T10:05:39.465Z,26.51
2023-06-14T10:06:39.407Z,26.50
2023-06-14T10:07:39.697Z,26.49
2023-06-14T10:08:39.414Z,26.50
2023-06-14T10:09:39.398Z,26.52
2023-06-14T10:10:39.407Z,26.52
2023-06-14T10:11:39.438Z,26.52
2023-06-14T10:12:39.392Z,26.55
2023-06-14T10:13:39.400Z,26.59
2023-06-14T10:14:39.458Z,26.62
2023-06-14T10:15:39.448Z,26.64
2023-06-14T10:16:39.603Z,26.65
2023-06-14T10:17:39.567Z,26.65
2023-06-14T10:18:39.592Z,26.66
2023-06-14T10:19:39.564Z,26.65
2023-06-14T10:20:39.650Z,26.67
2023-06-14T10:21:39.607Z,26.69
2023-06-14T10:22:39.662Z,26.68
2023-06-14T10:23:39.697Z,26.67
2023-06-14T10:24:39.867Z,26.65
2023-06-14T10:25:39.774Z,26.65
2023-06-14T10:26:39.846Z,26.65
2023-06-14T10:27:39.917Z,26.65
2023-06-14T10:28:39.927Z,26.63
2023-06-14T10:29:39.996Z,26.65
2023-06-14T10:30:40.004Z,26.66
2023-06-14T10:31:40.085Z,26.67
2023-06-14T10:32:40.153Z,26.68
2023-06-14T10:33:41.690Z,26.68
2023-06-14T10:34:40.261Z,26.63
2023-06-14T10:35:40.128Z,26.65
2023-06-14T10:36:40.093Z,26.65
2023-06-14T10:37:40.082Z,26.67
2023-06-14T10:38:40.096Z,26.71
2023-06-14T10:39:40.085Z,26.72
2023-06-14T10:40:40.052Z,26.72
2023-06-14T10:41:40.060Z,26.75
2023-06-14T10:42:40.063Z,26.77
2023-06-14T10:43:40.039Z,26.78
2023-06-14T10:44:40.080Z,26.77
2023-06-14T10:45:40.070Z,26.77
2023-06-14T10:46:40.037Z,26.78
2023-06-14T10:47:40.060Z,26.75
2023-06-14T10:48:40.049Z,26.72
2023-06-14T10:49:40.054Z,26.71
2023-06-14T10:50:40.027Z,26.71
2023-06-14T10:51:39.999Z,26.70
2023-06-14T10:52:40.021Z,26.74
2023-06-14T10:53:39.982Z,26.77
2023-06-14T10:54:39.977Z,26.83
2023-06-14T10:55:39.990Z,26.85
2023-06-14T10:56:39.952Z,26.87
2023-06-14T10:57:51.199Z,26.89
2023-06-14T10:58:41.414Z,26.89
2023-06-14T10:59:39.960Z,26.88
2023-06-14T11:00:40.062Z,26.88
2023-06-14T11:01:39.967Z,26.88
2023-06-14T11:02:39.987Z,26.91
2023-06-14T11:03:39.974Z,26.92
2023-06-14T11:04:39.913Z,26.94
2023-06-14T11:05:39.889Z,26.96
2023-06-14T11:06:39.909Z,26.96
2023-06-14T11:07:39.908Z,26.97
2023-06-14T11:08:39.871Z,26.98
2023-06-14T11:09:39.847Z,26.97
2023-06-14T11:10:39.843Z,26.98
2023-06-14T11:11:39.879Z,26.96
2023-06-14T11:12:40.037Z,26.97
2023-06-14T11:13:39.865Z,26.99
2023-06-14T11:14:39.875Z,27.01
2023-06-14T11:15:39.901Z,27.02
2023-06-14T11:16:39.887Z,27.03
2023-06-14T11:17:39.989Z,27.05
2023-06-14T11:18:39.903Z,27.09
2023-06-14T11:19:39.893Z,27.12
2023-06-14T11:20:39.967Z,27.13
2023-06-14T11:21:39.968Z,27.15
2023-06-14T11:22:39.978Z,27.15
2023-06-14T11:23:40.031Z,27.15
2023-06-14T11:24:39.998Z,27.12
2023-06-14T11:25:40.042Z,27.09
2023-06-14T11:26:40.019Z,27.07
2023-06-14T11:27:40.081Z,27.04
2023-06-14T11:28:40.036Z,26.98
2023-06-14T11:29:40.047Z,26.96
2023-06-14T11:30:40.041Z,26.96
2023-06-14T11:31:40.121Z,26.95
2023-06-14T11:32:40.192Z,26.93
2023-06-14T11:33:40.119Z,26.91
2023-06-14T11:34:40.174Z,26.90
2023-06-14T11:35:40.180Z,26.88
2023-06-14T11:36:40.207Z,26.87
2023-06-14T11:37:40.217Z,26.88
2023-06-14T11:38:40.233Z,26.87
2023-06-14T11:39:40.308Z,26.88
2023-06-14T11:40:40.306Z,26.91
2023-06-14T11:41:40.314Z,26.94
2023-06-14T11:42:40.309Z,26.97
2023-06-14T11:43:40.320Z,27.01
2023-06-14T11:44:40.324Z,27.05
2023-06-14T11:45:40.331Z,27.06
2023-06-14T11:46:40.351Z,27.07
2023-06-14T11:47:40.412Z,27.08
2023-06-14T11:48:40.372Z,27.11
2023-06-14T11:49:40.359Z,27.12
2023-06-14T11:50:40.372Z,27.12
2023-06-14T11:51:40.389Z,27.13
2023-06-14T11:52:40.393Z,27.14
2023-06-14T11:53:40.388Z,27.13
2023-06-14T11:54:40.434Z,27.12
2023-06-14T11:55:40.476Z,27.12
2023-06-14T11:56:40.462Z,27.11
2023-06-14T11:57:40.408Z,27.10
2023-06-14T11:58:40.415Z,27.11
2023-06-14T11:59:40.432Z,27.10
2023-06-14T12:00:40.439Z,27.09
2023-06-14T12:01:40.835Z,27.11
2023-06-14T12:02:40.519Z,27.11
2023-06-14T12:03:40.405Z,27.11
2023-06-14T12:04:40.464Z,27.10
2023-06-14T12:05:40.477Z,27.09
2023-06-14T12:06:40.668Z,27.08
2023-06-14T12:07:40.448Z,27.08
2023-06-14T12:08:40.481Z,27.07
2023-06-14T12:09:40.447Z,27.06
2023-06-14T12:10:40.512Z,27.05
2023-06-14T12:11:40.464Z,27.08
2023-06-14T12:12:40.435Z,27.09
2023-06-14T12:13:40.442Z,27.08
2023-06-14T12:14:40.487Z,27.08
2023-06-14T12:15:40.428Z,27.08
2023-06-14T12:16:40.492Z,27.09
2023-06-14T12:17:40.480Z,27.10
2023-06-14T12:18:40.423Z,27.10
2023-06-14T12:19:40.468Z,27.11
2023-06-14T12:20:40.418Z,27.15
2023-06-14T12:21:40.434Z,27.15
2023-06-14T12:22:40.476Z,27.15
2023-06-14T12:23:40.548Z,27.15
2023-06-14T12:24:40.486Z,27.17
2023-06-14T12:25:40.491Z,27.18
2023-06-14T12:26:40.515Z,27.20
2023-06-14T12:27:40.536Z,27.22
2023-06-14T12:28:40.563Z,27.24
2023-06-14T12:29:40.545Z,27.25
2023-06-14T12:30:40.640Z,27.28
2023-06-14T12:31:40.695Z,27.29
2023-06-14T12:32:40.772Z,27.31
2023-06-14T12:33:40.747Z,27.31
2023-06-14T12:34:40.779Z,27.33
2023-06-14T12:35:40.804Z,27.34
2023-06-14T12:36:40.842Z,27.34
2023-06-14T12:37:40.977Z,27.35
2023-06-14T12:38:40.979Z,27.39
2023-06-14T12:39:40.998Z,27.40
2023-06-14T12:40:41.074Z,27.43
2023-06-14T12:41:41.087Z,27.44
2023-06-14T12:42:41.175Z,27.43
2023-06-14T12:43:41.245Z,27.46
2023-06-14T12:44:41.270Z,27.46
2023-06-14T12:45:41.355Z,27.48
2023-06-14T12:46:41.427Z,27.49
2023-06-14T12:47:41.504Z,27.49
2023-06-14T12:48:41.510Z,27.53
2023-06-14T12:49:41.588Z,27.55
2023-06-14T12:50:41.635Z,27.56
2023-06-14T12:51:41.751Z,27.54
2023-06-14T12:52:41.740Z,27.56
2023-06-14T12:53:41.772Z,27.60